sensor_id;sensor_type;location;lat;lon;timestamp;pressure;altitude;pressure_sealevel;temperature;humidity
71805;BME280;59654;52.216;5.616;2022-07-17T00:00:18;102616.97;;;9.92;80.87
71805;BME280;59654;52.216;5.616;2022-07-17T00:00:49;102616.06;;;9.92;81.15
71805;BME280;59654;52.216;5.616;2022-07-17T00:01:20;102610.72;;;9.95;80.53
71805;BME280;59654;52.216;5.616;2022-07-17T00:01:50;102613.41;;;9.93;80.37
71805;BME280;59654;52.216;5.616;2022-07-17T00:02:21;102616.06;;;9.92;80.92
71805;BME280;59654;52.216;5.616;2022-07-17T00:02:52;102622.31;;;9.91;80.96
71805;BME280;59654;52.216;5.616;2022-07-17T00:03:23;102614.31;;;9.91;81.18
71805;BME280;59654;52.216;5.616;2022-07-17T00:03:54;102617.88;;;9.90;80.75
71805;BME280;59654;52.216;5.616;2022-07-17T00:04:24;102618.75;;;9.90;80.91
71805;BME280;59654;52.216;5.616;2022-07-17T00:04:55;102618.75;;;9.90;80.53
71805;BME280;59654;52.216;5.616;2022-07-17T00:05:26;102616.97;;;9.89;80.40
71805;BME280;59654;52.216;5.616;2022-07-17T00:05:56;102613.44;;;9.87;80.85
71805;BME280;59654;52.216;5.616;2022-07-17T00:06:27;102612.56;;;9.87;80.34
71805;BME280;59654;52.216;5.616;2022-07-17T00:06:59;102614.34;;;9.85;80.35
71805;BME280;59654;52.216;5.616;2022-07-17T00:07:29;102613.44;;;9.84;80.37
71805;BME280;59654;52.216;5.616;2022-07-17T00:08:00;102613.50;;;9.81;80.72
71805;BME280;59654;52.216;5.616;2022-07-17T00:08:31;102609.94;;;9.81;81.43
71805;BME280;59654;52.216;5.616;2022-07-17T00:09:02;102613.50;;;9.80;80.84
71805;BME280;59654;52.216;5.616;2022-07-17T00:09:33;102617.06;;;9.77;81.54
71805;BME280;59654;52.216;5.616;2022-07-17T00:10:04;102615.31;;;9.76;80.88
71805;BME280;59654;52.216;5.616;2022-07-17T00:10:38;102615.31;;;9.75;81.05
71805;BME280;59654;52.216;5.616;2022-07-17T00:11:10;102617.97;;;9.73;80.66
71805;BME280;59654;52.216;5.616;2022-07-17T00:11:40;102619.75;;;9.73;80.87
71805;BME280;59654;52.216;5.616;2022-07-17T00:12:11;102613.53;;;9.72;81.18
71805;BME280;59654;52.216;5.616;2022-07-17T00:12:42;102618.88;;;9.71;80.98
71805;BME280;59654;52.216;5.616;2022-07-17T00:13:13;102608.22;;;9.71;81.80
71805;BME280;59654;52.216;5.616;2022-07-17T00:13:44;102625.97;;;9.70;81.56
71805;BME280;59654;52.216;5.616;2022-07-17T00:14:15;102613.56;;;9.69;81.38
71805;BME280;59654;52.216;5.616;2022-07-17T00:14:45;102611.78;;;9.70;81.19
71805;BME280;59654;52.216;5.616;2022-07-17T00:15:16;102618.00;;;9.69;81.45
71805;BME280;59654;52.216;5.616;2022-07-17T00:15:47;102616.22;;;9.68;82.19
71805;BME280;59654;52.216;5.616;2022-07-17T00:16:17;102614.44;;;9.70;81.99
71805;BME280;59654;52.216;5.616;2022-07-17T00:16:48;102613.56;;;9.68;81.19
71805;BME280;59654;52.216;5.616;2022-07-17T00:17:19;102604.69;;;9.69;81.98
71805;BME280;59654;52.216;5.616;2022-07-17T00:17:51;102611.78;;;9.68;81.91
71805;BME280;59654;52.216;5.616;2022-07-17T00:18:22;102606.47;;;9.68;81.59
71805;BME280;59654;52.216;5.616;2022-07-17T00:18:53;102609.13;;;9.68;81.97
71805;BME280;59654;52.216;5.616;2022-07-17T00:19:24;102603.78;;;9.68;81.29
71805;BME280;59654;52.216;5.616;2022-07-17T00:19:55;102607.34;;;9.69;81.01
71805;BME280;59654;52.216;5.616;2022-07-17T00:20:27;102610.91;;;9.68;81.78
71805;BME280;59654;52.216;5.616;2022-07-17T00:20:58;102606.50;;;9.65;81.14
71805;BME280;59654;52.216;5.616;2022-07-17T00:21:29;102613.59;;;9.65;81.48
71805;BME280;59654;52.216;5.616;2022-07-17T00:22:00;102618.94;;;9.65;81.91
71805;BME280;59654;52.216;5.616;2022-07-17T00:22:30;102612.72;;;9.64;81.03
71805;BME280;59654;52.216;5.616;2022-07-17T00:23:01;102614.50;;;9.64;80.78
71805;BME280;59654;52.216;5.616;2022-07-17T00:23:32;102610.06;;;9.61;81.18
71805;BME280;59654;52.216;5.616;2022-07-17T00:24:03;102610.06;;;9.59;81.55
71805;BME280;59654;52.216;5.616;2022-07-17T00:24:36;102607.41;;;9.59;81.50
71805;BME280;59654;52.216;5.616;2022-07-17T00:25:07;102614.50;;;9.59;81.35
71805;BME280;59654;52.216;5.616;2022-07-17T00:25:38;102622.50;;;9.57;81.26
71805;BME280;59654;52.216;5.616;2022-07-17T00:26:09;102617.19;;;9.56;81.62
71805;BME280;59654;52.216;5.616;2022-07-17T00:26:40;102612.75;;;9.55;82.04
71805;BME280;59654;52.216;5.616;2022-07-17T00:27:10;102611.88;;;9.53;82.38
71805;BME280;59654;52.216;5.616;2022-07-17T00:27:41;102610.09;;;9.52;81.55
71805;BME280;59654;52.216;5.616;2022-07-17T00:28:12;102608.34;;;9.51;81.32
71805;BME280;59654;52.216;5.616;2022-07-17T00:28:43;102618.09;;;9.50;82.51
71805;BME280;59654;52.216;5.616;2022-07-17T00:29:13;102614.59;;;9.48;81.57
71805;BME280;59654;52.216;5.616;2022-07-17T00:29:44;102605.72;;;9.48;82.43
71805;BME280;59654;52.216;5.616;2022-07-17T00:30:16;102604.81;;;9.47;82.05
71805;BME280;59654;52.216;5.616;2022-07-17T00:30:46;102599.50;;;9.46;81.84
71805;BME280;59654;52.216;5.616;2022-07-17T00:31:17;102610.16;;;9.44;82.37
71805;BME280;59654;52.216;5.616;2022-07-17T00:31:48;102604.84;;;9.43;82.27
71805;BME280;59654;52.216;5.616;2022-07-17T00:32:19;102603.06;;;9.43;82.39
71805;BME280;59654;52.216;5.616;2022-07-17T00:32:49;102604.84;;;9.41;82.92
71805;BME280;59654;52.216;5.616;2022-07-17T00:33:20;102611.94;;;9.41;81.93
71805;BME280;59654;52.216;5.616;2022-07-17T00:33:51;102603.97;;;9.39;82.64
71805;BME280;59654;52.216;5.616;2022-07-17T00:34:21;102603.97;;;9.38;82.33
71805;BME280;59654;52.216;5.616;2022-07-17T00:34:52;102603.09;;;9.39;81.75
71805;BME280;59654;52.216;5.616;2022-07-17T00:35:23;102594.22;;;9.35;82.30
71805;BME280;59654;52.216;5.616;2022-07-17T00:35:54;102605.75;;;9.36;82.48
71805;BME280;59654;52.216;5.616;2022-07-17T00:36:25;102606.63;;;9.35;81.72
71805;BME280;59654;52.216;5.616;2022-07-17T00:36:55;102605.75;;;9.34;81.72
71805;BME280;59654;52.216;5.616;2022-07-17T00:37:26;102604.91;;;9.34;82.38
71805;BME280;59654;52.216;5.616;2022-07-17T00:37:57;102606.69;;;9.33;82.67
71805;BME280;59654;52.216;5.616;2022-07-17T00:38:28;102602.25;;;9.32;82.01
71805;BME280;59654;52.216;5.616;2022-07-17T00:38:59;102605.81;;;9.31;81.71
71805;BME280;59654;52.216;5.616;2022-07-17T00:39:29;102606.69;;;9.30;82.01
71805;BME280;59654;52.216;5.616;2022-07-17T00:40:01;102605.81;;;9.30;82.30
71805;BME280;59654;52.216;5.616;2022-07-17T00:40:32;102603.13;;;9.30;82.70
71805;BME280;59654;52.216;5.616;2022-07-17T00:41:03;102606.69;;;9.29;81.92
71805;BME280;59654;52.216;5.616;2022-07-17T00:41:34;102604.91;;;9.27;82.75
71805;BME280;59654;52.216;5.616;2022-07-17T00:42:05;102601.38;;;9.25;82.25
71805;BME280;59654;52.216;5.616;2022-07-17T00:42:38;102598.72;;;9.25;82.77
71805;BME280;59654;52.216;5.616;2022-07-17T00:43:10;102601.38;;;9.24;82.43
71805;BME280;59654;52.216;5.616;2022-07-17T00:43:40;102601.38;;;9.24;81.84
71805;BME280;59654;52.216;5.616;2022-07-17T00:44:12;102595.19;;;9.22;82.08
71805;BME280;59654;52.216;5.616;2022-07-17T00:44:44;102598.72;;;9.21;82.49
71805;BME280;59654;52.216;5.616;2022-07-17T00:45:15;102595.19;;;9.20;82.47
71805;BME280;59654;52.216;5.616;2022-07-17T00:45:45;102607.59;;;9.20;83.24
71805;BME280;59654;52.216;5.616;2022-07-17T00:46:25;102597.84;;;9.19;83.25
71805;BME280;59654;52.216;5.616;2022-07-17T00:46:55;102596.13;;;9.16;82.96
71805;BME280;59654;52.216;5.616;2022-07-17T00:47:26;102600.53;;;9.16;82.75
71805;BME280;59654;52.216;5.616;2022-07-17T00:48:03;102605.88;;;9.14;83.51
71805;BME280;59654;52.216;5.616;2022-07-17T00:48:35;102597.91;;;9.13;82.91
71805;BME280;59654;52.216;5.616;2022-07-17T00:49:06;102594.34;;;9.12;82.74
71805;BME280;59654;52.216;5.616;2022-07-17T00:49:37;102598.78;;;9.12;83.14
71805;BME280;59654;52.216;5.616;2022-07-17T00:50:08;102600.56;;;9.11;83.39
71805;BME280;59654;52.216;5.616;2022-07-17T00:50:40;102597.91;;;9.10;83.39
71805;BME280;59654;52.216;5.616;2022-07-17T00:51:12;102598.78;;;9.09;83.03
71805;BME280;59654;52.216;5.616;2022-07-17T00:51:43;102594.34;;;9.09;82.90
71805;BME280;59654;52.216;5.616;2022-07-17T00:52:16;102601.44;;;9.09;82.46
71805;BME280;59654;52.216;5.616;2022-07-17T00:52:47;102596.13;;;9.07;81.66
71805;BME280;59654;52.216;5.616;2022-07-17T00:53:18;102591.69;;;9.06;82.10
71805;BME280;59654;52.216;5.616;2022-07-17T00:53:51;102595.25;;;9.05;81.44
71805;BME280;59654;52.216;5.616;2022-07-17T00:54:22;102594.34;;;9.05;81.41
71805;BME280;59654;52.216;5.616;2022-07-17T00:54:57;102588.16;;;9.03;81.62
71805;BME280;59654;52.216;5.616;2022-07-17T00:55:29;102587.25;;;9.05;81.49
71805;BME280;59654;52.216;5.616;2022-07-17T00:56:05;102595.25;;;9.04;81.76
71805;BME280;59654;52.216;5.616;2022-07-17T00:56:37;102592.59;;;9.02;81.43
71805;BME280;59654;52.216;5.616;2022-07-17T00:57:13;102591.72;;;9.02;81.96
71805;BME280;59654;52.216;5.616;2022-07-17T00:57:47;102589.03;;;9.02;81.86
71805;BME280;59654;52.216;5.616;2022-07-17T00:58:22;102597.94;;;9.01;82.17
71805;BME280;59654;52.216;5.616;2022-07-17T00:58:55;102591.75;;;9.00;81.46
71805;BME280;59654;52.216;5.616;2022-07-17T00:59:28;102598.84;;;9.00;81.47
71805;BME280;59654;52.216;5.616;2022-07-17T01:00:00;102598.84;;;8.98;82.24
71805;BME280;59654;52.216;5.616;2022-07-17T01:00:31;102597.06;;;8.99;81.52
71805;BME280;59654;52.216;5.616;2022-07-17T01:01:04;102597.94;;;8.99;81.15
71805;BME280;59654;52.216;5.616;2022-07-17T01:01:38;102598.84;;;9.00;81.96
71805;BME280;59654;52.216;5.616;2022-07-17T01:02:12;102591.75;;;8.99;81.78
71805;BME280;59654;52.216;5.616;2022-07-17T01:02:49;102595.28;;;8.98;81.65
71805;BME280;59654;52.216;5.616;2022-07-17T01:03:24;102600.63;;;8.96;81.67
71805;BME280;59654;52.216;5.616;2022-07-17T01:03:55;102595.28;;;8.95;81.85
71805;BME280;59654;52.216;5.616;2022-07-17T01:04:26;102604.16;;;8.94;82.08
71805;BME280;59654;52.216;5.616;2022-07-17T01:04:56;102602.41;;;8.91;82.36
71805;BME280;59654;52.216;5.616;2022-07-17T01:05:27;102597.06;;;8.89;82.33
71805;BME280;59654;52.216;5.616;2022-07-17T01:05:58;102603.28;;;8.88;81.97
71805;BME280;59654;52.216;5.616;2022-07-17T01:06:29;102604.16;;;8.89;81.57
71805;BME280;59654;52.216;5.616;2022-07-17T01:06:59;102593.53;;;8.87;81.97
71805;BME280;59654;52.216;5.616;2022-07-17T01:07:30;102597.06;;;8.86;81.70
71805;BME280;59654;52.216;5.616;2022-07-17T01:08:02;102591.78;;;8.85;81.79
71805;BME280;59654;52.216;5.616;2022-07-17T01:08:34;102596.19;;;8.86;81.87
71805;BME280;59654;52.216;5.616;2022-07-17T01:09:10;102591.78;;;8.83;81.42
71805;BME280;59654;52.216;5.616;2022-07-17T01:09:41;102600.66;;;8.82;82.49
71805;BME280;59654;52.216;5.616;2022-07-17T01:10:14;102595.34;;;8.81;81.72
71805;BME280;59654;52.216;5.616;2022-07-17T01:10:47;102598.00;;;8.81;82.76
71805;BME280;59654;52.216;5.616;2022-07-17T01:11:17;102591.81;;;8.77;82.86
71805;BME280;59654;52.216;5.616;2022-07-17T01:11:50;102590.91;;;8.78;82.60
71805;BME280;59654;52.216;5.616;2022-07-17T01:12:22;102594.47;;;8.77;83.16
71805;BME280;59654;52.216;5.616;2022-07-17T01:12:54;102591.81;;;8.77;82.79
71805;BME280;59654;52.216;5.616;2022-07-17T01:13:26;102595.34;;;8.78;83.24
71805;BME280;59654;52.216;5.616;2022-07-17T01:13:57;102597.13;;;8.79;82.68
71805;BME280;59654;52.216;5.616;2022-07-17T01:14:28;102601.56;;;8.80;83.51
71805;BME280;59654;52.216;5.616;2022-07-17T01:14:59;102596.22;;;8.81;82.69
71805;BME280;59654;52.216;5.616;2022-07-17T01:15:32;102607.75;;;8.83;82.93
71805;BME280;59654;52.216;5.616;2022-07-17T01:16:03;102598.00;;;8.84;82.98
71805;BME280;59654;52.216;5.616;2022-07-17T01:16:34;102605.06;;;8.86;82.78
71805;BME280;59654;52.216;5.616;2022-07-17T01:17:06;102602.41;;;8.86;82.51
71805;BME280;59654;52.216;5.616;2022-07-17T01:17:37;102604.16;;;8.89;82.64
71805;BME280;59654;52.216;5.616;2022-07-17T01:18:10;102603.28;;;8.88;82.28
71805;BME280;59654;52.216;5.616;2022-07-17T01:18:42;102605.94;;;8.87;83.00
71805;BME280;59654;52.216;5.616;2022-07-17T01:19:13;102605.94;;;8.85;81.92
71805;BME280;59654;52.216;5.616;2022-07-17T01:19:44;102598.88;;;8.84;82.59
71805;BME280;59654;52.216;5.616;2022-07-17T01:20:15;102605.94;;;8.85;83.20
71805;BME280;59654;52.216;5.616;2022-07-17T01:20:48;102604.16;;;8.87;82.38
71805;BME280;59654;52.216;5.616;2022-07-17T01:21:19;102609.50;;;8.87;83.15
71805;BME280;59654;52.216;5.616;2022-07-17T01:21:50;102608.59;;;8.88;82.86
71805;BME280;59654;52.216;5.616;2022-07-17T01:22:21;102614.81;;;8.90;82.91
71805;BME280;59654;52.216;5.616;2022-07-17T01:22:51;102607.72;;;8.89;81.85
71805;BME280;59654;52.216;5.616;2022-07-17T01:23:22;102611.25;;;8.90;82.43
71805;BME280;59654;52.216;5.616;2022-07-17T01:23:53;102609.50;;;8.90;82.17
71805;BME280;59654;52.216;5.616;2022-07-17T01:24:23;102612.16;;;8.92;82.78
71805;BME280;59654;52.216;5.616;2022-07-17T01:24:54;102607.72;;;8.89;82.56
71805;BME280;59654;52.216;5.616;2022-07-17T01:25:25;102606.84;;;8.89;82.15
71805;BME280;59654;52.216;5.616;2022-07-17T01:25:55;102607.72;;;8.89;81.79
71805;BME280;59654;52.216;5.616;2022-07-17T01:26:26;102612.16;;;8.90;81.76
71805;BME280;59654;52.216;5.616;2022-07-17T01:26:57;102610.38;;;8.89;81.81
71805;BME280;59654;52.216;5.616;2022-07-17T01:27:28;102613.03;;;8.89;82.52
71805;BME280;59654;52.216;5.616;2022-07-17T01:28:00;102610.38;;;8.89;81.95
71805;BME280;59654;52.216;5.616;2022-07-17T01:28:31;102611.25;;;8.88;82.32
71805;BME280;59654;52.216;5.616;2022-07-17T01:29:02;102616.59;;;8.88;81.92
71805;BME280;59654;52.216;5.616;2022-07-17T01:29:36;102618.34;;;8.89;82.54
71805;BME280;59654;52.216;5.616;2022-07-17T01:30:08;102612.16;;;8.89;81.95
71805;BME280;59654;52.216;5.616;2022-07-17T01:30:51;102615.69;;;8.89;81.53
71805;BME280;59654;52.216;5.616;2022-07-17T01:31:22;102618.34;;;8.89;82.58
71805;BME280;59654;52.216;5.616;2022-07-17T01:31:53;102615.69;;;8.89;82.58
71805;BME280;59654;52.216;5.616;2022-07-17T01:32:39;102617.47;;;8.89;82.54
71805;BME280;59654;52.216;5.616;2022-07-17T01:33:11;102615.69;;;8.89;82.79
71805;BME280;59654;52.216;5.616;2022-07-17T01:33:42;102614.81;;;8.89;82.73
71805;BME280;59654;52.216;5.616;2022-07-17T01:34:13;102616.59;;;8.88;82.81
71805;BME280;59654;52.216;5.616;2022-07-17T01:34:43;102613.91;;;8.88;82.04
71805;BME280;59654;52.216;5.616;2022-07-17T01:35:15;102618.34;;;8.89;82.21
71805;BME280;59654;52.216;5.616;2022-07-17T01:35:46;102619.25;;;8.88;83.23
71805;BME280;59654;52.216;5.616;2022-07-17T01:36:24;102614.81;;;8.90;82.84
71805;BME280;59654;52.216;5.616;2022-07-17T01:36:55;102610.38;;;8.91;82.73
71805;BME280;59654;52.216;5.616;2022-07-17T01:37:26;102613.03;;;8.93;82.10
71805;BME280;59654;52.216;5.616;2022-07-17T01:37:57;102610.38;;;8.93;82.94
71805;BME280;59654;52.216;5.616;2022-07-17T01:38:28;102619.25;;;8.95;81.86
71805;BME280;59654;52.216;5.616;2022-07-17T01:38:58;102614.81;;;8.94;81.83
71805;BME280;59654;52.216;5.616;2022-07-17T01:39:29;102610.38;;;8.93;82.95
71805;BME280;59654;52.216;5.616;2022-07-17T01:40:19;102609.47;;;8.94;82.25
71805;BME280;59654;52.216;5.616;2022-07-17T01:40:50;102608.59;;;8.96;81.89
71805;BME280;59654;52.216;5.616;2022-07-17T01:41:22;102615.69;;;8.97;81.12
71805;BME280;59654;52.216;5.616;2022-07-17T01:41:53;102615.69;;;8.99;81.76
71805;BME280;59654;52.216;5.616;2022-07-17T01:42:26;102612.13;;;8.98;81.12
71805;BME280;59654;52.216;5.616;2022-07-17T01:42:57;102616.56;;;8.98;81.86
71805;BME280;59654;52.216;5.616;2022-07-17T01:43:28;102608.59;;;8.99;81.43
71805;BME280;59654;52.216;5.616;2022-07-17T01:43:59;102619.22;;;8.99;81.76
71805;BME280;59654;52.216;5.616;2022-07-17T01:44:29;102617.47;;;8.98;82.11
71805;BME280;59654;52.216;5.616;2022-07-17T01:45:00;102615.69;;;8.99;81.65
71805;BME280;59654;52.216;5.616;2022-07-17T01:45:31;102605.94;;;8.96;82.11
71805;BME280;59654;52.216;5.616;2022-07-17T01:46:01;102604.16;;;8.95;81.79
71805;BME280;59654;52.216;5.616;2022-07-17T01:46:32;102606.81;;;8.90;81.76
71805;BME280;59654;52.216;5.616;2022-07-17T01:47:04;102606.84;;;8.87;81.78
71805;BME280;59654;52.216;5.616;2022-07-17T01:47:34;102594.44;;;8.85;81.58
71805;BME280;59654;52.216;5.616;2022-07-17T01:48:05;102604.22;;;8.83;80.95
71805;BME280;59654;52.216;5.616;2022-07-17T01:48:36;102605.09;;;8.80;81.36
71805;BME280;59654;52.216;5.616;2022-07-17T01:49:07;102605.09;;;8.79;82.13
71805;BME280;59654;52.216;5.616;2022-07-17T01:49:37;102605.09;;;8.77;82.11
71805;BME280;59654;52.216;5.616;2022-07-17T01:50:10;102601.53;;;8.75;81.54
71805;BME280;59654;52.216;5.616;2022-07-17T01:50:42;102598.84;;;8.74;81.59
71805;BME280;59654;52.216;5.616;2022-07-17T01:51:13;102599.75;;;8.73;82.12
71805;BME280;59654;52.216;5.616;2022-07-17T01:51:44;102604.19;;;8.72;82.10
71805;BME280;59654;52.216;5.616;2022-07-17T01:52:14;102599.75;;;8.74;82.70
71805;BME280;59654;52.216;5.616;2022-07-17T01:52:45;102606.84;;;8.75;82.64
71805;BME280;59654;52.216;5.616;2022-07-17T01:53:16;102604.19;;;8.75;82.41
71805;BME280;59654;52.216;5.616;2022-07-17T01:53:47;102603.31;;;8.78;82.88
71805;BME280;59654;52.216;5.616;2022-07-17T01:54:17;102600.66;;;8.79;82.67
71805;BME280;59654;52.216;5.616;2022-07-17T01:54:48;102598.91;;;8.78;82.79
71805;BME280;59654;52.216;5.616;2022-07-17T01:55:19;102598.91;;;8.77;82.31
71805;BME280;59654;52.216;5.616;2022-07-17T01:55:50;102605.97;;;8.76;81.76
71805;BME280;59654;52.216;5.616;2022-07-17T01:56:21;102596.19;;;8.74;81.62
71805;BME280;59654;52.216;5.616;2022-07-17T01:56:52;102597.97;;;8.72;81.64
71805;BME280;59654;52.216;5.616;2022-07-17T01:57:23;102602.41;;;8.70;82.52
71805;BME280;59654;52.216;5.616;2022-07-17T01:57:54;102597.13;;;8.68;81.49
71805;BME280;59654;52.216;5.616;2022-07-17T01:58:25;102606.88;;;8.66;82.27
71805;BME280;59654;52.216;5.616;2022-07-17T01:58:56;102605.09;;;8.64;82.53
71805;BME280;59654;52.216;5.616;2022-07-17T01:59:27;102598.91;;;8.63;82.51
71805;BME280;59654;52.216;5.616;2022-07-17T01:59:57;102600.66;;;8.61;82.18
71805;BME280;59654;52.216;5.616;2022-07-17T02:00:28;102600.66;;;8.61;82.20
71805;BME280;59654;52.216;5.616;2022-07-17T02:00:59;102607.75;;;8.61;82.34
71805;BME280;59654;52.216;5.616;2022-07-17T02:01:30;102601.56;;;8.60;82.21
71805;BME280;59654;52.216;5.616;2022-07-17T02:02:02;102600.66;;;8.61;82.35
71805;BME280;59654;52.216;5.616;2022-07-17T02:02:35;102599.78;;;8.59;82.75
71805;BME280;59654;52.216;5.616;2022-07-17T02:03:06;102605.09;;;8.59;83.03
71805;BME280;59654;52.216;5.616;2022-07-17T02:03:37;102602.44;;;8.57;83.18
71805;BME280;59654;52.216;5.616;2022-07-17T02:04:07;102592.69;;;8.55;83.16
71805;BME280;59654;52.216;5.616;2022-07-17T02:04:39;102602.44;;;8.54;83.33
71805;BME280;59654;52.216;5.616;2022-07-17T02:05:12;102595.38;;;8.52;82.94
71805;BME280;59654;52.216;5.616;2022-07-17T02:05:43;102593.63;;;8.51;82.42
71805;BME280;59654;52.216;5.616;2022-07-17T02:06:14;102595.38;;;8.49;82.44
71805;BME280;59654;52.216;5.616;2022-07-17T02:06:45;102588.28;;;8.46;83.04
71805;BME280;59654;52.216;5.616;2022-07-17T02:07:15;102586.53;;;8.45;82.68
71805;BME280;59654;52.216;5.616;2022-07-17T02:07:46;102586.50;;;8.44;82.66
71805;BME280;59654;52.216;5.616;2022-07-17T02:08:17;102585.63;;;8.42;83.19
71805;BME280;59654;52.216;5.616;2022-07-17T02:08:48;102582.97;;;8.40;83.69
71805;BME280;59654;52.216;5.616;2022-07-17T02:09:22;102590.06;;;8.40;83.08
71805;BME280;59654;52.216;5.616;2022-07-17T02:09:53;102584.75;;;8.38;83.62
71805;BME280;59654;52.216;5.616;2022-07-17T02:10:24;102590.94;;;8.37;83.13
71805;BME280;59654;52.216;5.616;2022-07-17T02:10:54;102579.44;;;8.37;83.60
71805;BME280;59654;52.216;5.616;2022-07-17T02:11:25;102582.09;;;8.37;83.35
71805;BME280;59654;52.216;5.616;2022-07-17T02:11:56;102577.69;;;8.36;83.66
71805;BME280;59654;52.216;5.616;2022-07-17T02:12:27;102582.13;;;8.35;83.78
71805;BME280;59654;52.216;5.616;2022-07-17T02:12:57;102586.53;;;8.33;83.22
71805;BME280;59654;52.216;5.616;2022-07-17T02:13:28;102585.66;;;8.33;84.07
71805;BME280;59654;52.216;5.616;2022-07-17T02:13:59;102578.56;;;8.33;83.37
71805;BME280;59654;52.216;5.616;2022-07-17T02:14:30;102583.00;;;8.33;83.43
71805;BME280;59654;52.216;5.616;2022-07-17T02:15:02;102582.13;;;8.32;84.14
71805;BME280;59654;52.216;5.616;2022-07-17T02:15:33;102583.88;;;8.33;83.95
71805;BME280;59654;52.216;5.616;2022-07-17T02:16:04;102582.13;;;8.35;84.00
71805;BME280;59654;52.216;5.616;2022-07-17T02:16:35;102576.81;;;8.35;83.55
71805;BME280;59654;52.216;5.616;2022-07-17T02:17:06;102579.47;;;8.35;83.99
71805;BME280;59654;52.216;5.616;2022-07-17T02:17:37;102590.94;;;8.37;83.63
71805;BME280;59654;52.216;5.616;2022-07-17T02:18:08;102591.84;;;8.38;83.60
71805;BME280;59654;52.216;5.616;2022-07-17T02:18:39;102587.41;;;8.38;83.68
71805;BME280;59654;52.216;5.616;2022-07-17T02:19:10;102598.91;;;8.40;83.75
71805;BME280;59654;52.216;5.616;2022-07-17T02:19:41;102592.72;;;8.41;83.24
71805;BME280;59654;52.216;5.616;2022-07-17T02:20:12;102584.75;;;8.43;83.79
71805;BME280;59654;52.216;5.616;2022-07-17T02:20:43;102587.41;;;8.44;83.86
71805;BME280;59654;52.216;5.616;2022-07-17T02:21:18;102590.94;;;8.46;82.83
71805;BME280;59654;52.216;5.616;2022-07-17T02:21:49;102592.72;;;8.49;82.84
71805;BME280;59654;52.216;5.616;2022-07-17T02:22:19;102587.41;;;8.49;83.70
71805;BME280;59654;52.216;5.616;2022-07-17T02:22:50;102591.84;;;8.50;82.93
71805;BME280;59654;52.216;5.616;2022-07-17T02:23:21;102591.84;;;8.48;82.84
71805;BME280;59654;52.216;5.616;2022-07-17T02:23:52;102587.41;;;8.46;82.87
71805;BME280;59654;52.216;5.616;2022-07-17T02:24:22;102593.59;;;8.45;82.73
71805;BME280;59654;52.216;5.616;2022-07-17T02:24:53;102594.50;;;8.44;83.35
71805;BME280;59654;52.216;5.616;2022-07-17T02:25:24;102595.38;;;8.43;83.18
71805;BME280;59654;52.216;5.616;2022-07-17T02:25:59;102598.91;;;8.42;83.16
71805;BME280;59654;52.216;5.616;2022-07-17T02:26:29;102599.81;;;8.42;82.20
71805;BME280;59654;52.216;5.616;2022-07-17T02:27:00;102598.91;;;8.42;83.22
71805;BME280;59654;52.216;5.616;2022-07-17T02:27:32;102598.91;;;8.42;82.56
71805;BME280;59654;52.216;5.616;2022-07-17T02:28:03;102602.47;;;8.41;82.87
71805;BME280;59654;52.216;5.616;2022-07-17T02:28:34;102604.22;;;8.40;83.55
71805;BME280;59654;52.216;5.616;2022-07-17T02:29:04;102606.00;;;8.43;82.68
71805;BME280;59654;52.216;5.616;2022-07-17T02:29:35;102610.44;;;8.44;82.75
71805;BME280;59654;52.216;5.616;2022-07-17T02:30:12;102611.31;;;8.44;82.71
71805;BME280;59654;52.216;5.616;2022-07-17T02:30:43;102606.00;;;8.41;83.48
71805;BME280;59654;52.216;5.616;2022-07-17T02:31:14;102613.97;;;8.40;83.26
71805;BME280;59654;52.216;5.616;2022-07-17T02:31:45;102614.88;;;8.39;83.83
71805;BME280;59654;52.216;5.616;2022-07-17T02:32:15;102616.63;;;8.37;83.36
71805;BME280;59654;52.216;5.616;2022-07-17T02:32:46;102608.66;;;8.37;83.71
71805;BME280;59654;52.216;5.616;2022-07-17T02:33:17;102610.44;;;8.38;83.66
71805;BME280;59654;52.216;5.616;2022-07-17T02:33:48;102613.97;;;8.40;84.33
71805;BME280;59654;52.216;5.616;2022-07-17T02:34:18;102618.41;;;8.41;84.45
71805;BME280;59654;52.216;5.616;2022-07-17T02:34:49;102613.09;;;8.42;83.51
71805;BME280;59654;52.216;5.616;2022-07-17T02:35:20;102615.75;;;8.44;84.09
71805;BME280;59654;52.216;5.616;2022-07-17T02:35:50;102614.00;;;8.46;84.04
71805;BME280;59654;52.216;5.616;2022-07-17T02:36:21;102611.34;;;8.46;84.35
71805;BME280;59654;52.216;5.616;2022-07-17T02:36:52;102613.09;;;8.47;83.42
71805;BME280;59654;52.216;5.616;2022-07-17T02:37:23;102605.13;;;8.48;83.74
71805;BME280;59654;52.216;5.616;2022-07-17T02:37:53;102603.34;;;8.49;83.00
71805;BME280;59654;52.216;5.616;2022-07-17T02:38:24;102606.00;;;8.49;82.98
71805;BME280;59654;52.216;5.616;2022-07-17T02:38:55;102614.88;;;8.48;82.54
71805;BME280;59654;52.216;5.616;2022-07-17T02:39:26;102611.34;;;8.47;82.30
71805;BME280;59654;52.216;5.616;2022-07-17T02:39:57;102611.34;;;8.46;81.98
71805;BME280;59654;52.216;5.616;2022-07-17T02:40:28;102614.00;;;8.46;81.75
71805;BME280;59654;52.216;5.616;2022-07-17T02:41:00;102614.00;;;8.44;81.39
71805;BME280;59654;52.216;5.616;2022-07-17T02:41:30;102617.53;;;8.43;81.42
71805;BME280;59654;52.216;5.616;2022-07-17T02:42:01;102613.97;;;8.43;81.32
71805;BME280;59654;52.216;5.616;2022-07-17T02:42:32;102619.31;;;8.43;81.57
71805;BME280;59654;52.216;5.616;2022-07-17T02:43:03;102617.53;;;8.43;81.33
71805;BME280;59654;52.216;5.616;2022-07-17T02:43:34;102618.41;;;8.42;81.91
71805;BME280;59654;52.216;5.616;2022-07-17T02:44:05;102616.63;;;8.41;82.81
71805;BME280;59654;52.216;5.616;2022-07-17T02:44:35;102623.72;;;8.41;81.78
71805;BME280;59654;52.216;5.616;2022-07-17T02:45:07;102613.97;;;8.40;81.93
71805;BME280;59654;52.216;5.616;2022-07-17T02:45:38;102617.53;;;8.39;82.40
71805;BME280;59654;52.216;5.616;2022-07-17T02:46:09;102617.53;;;8.37;82.23
71805;BME280;59654;52.216;5.616;2022-07-17T02:46:40;102621.97;;;8.35;81.84